Time;durP1;ratioP1;P1;durP2;ratioP2;P2;SDS_P1;SDS_P2;PMS_P1;PMS_P2;Temp;Humidity;BMP_temperature;BMP_pressure;BME280_temperature;BME280_humidity;BME280_pressure;Samples;Min_cycle;Max_cycle;Signal;HPM_P1;HPM_P2
2023/12/18 00:02:18;;;;;;;36.80;17.83;;;;;;;;;;5009262;28;20218;-73
2023/12/18 00:04:43;;;;;;;38.20;18.50;;;;;;;;;;5003862;28;20206;-72
2023/12/18 00:07:09;;;;;;;38.77;17.43;;;;;;;;;;5018781;28;20194;-72
2023/12/18 00:09:34;;;;;;;35.23;18.17;;;;;;;;;;5001393;28;20195;-73
2023/12/18 00:12:00;;;;;;;36.77;18.60;;;;;;;;;;5023252;28;20241;-73
2023/12/18 00:14:25;;;;;;;40.73;18.20;;;;;;;;;;5025573;28;20653;-73
2023/12/18 00:16:50;;;;;;;39.43;18.10;;;;;;;;;;5018746;28;20201;-73
2023/12/18 00:19:16;;;;;;;36.90;18.03;;;;;;;;;;4999918;28;20348;-72
2023/12/18 00:21:41;;;;;;;39.57;18.67;;;;;;;;;;5035146;28;20282;-72
2023/12/18 00:24:07;;;;;;;43.27;19.07;;;;;;;;;;4999534;28;20232;-73
2023/12/18 00:26:32;;;;;;;36.93;19.17;;;;;;;;;;5039942;28;20181;-72
2023/12/18 00:28:57;;;;;;;36.20;18.60;;;;;;;;;;5003471;28;20209;-73
2023/12/18 00:31:23;;;;;;;38.07;18.73;;;;;;;;;;5039895;28;20189;-73
2023/12/18 00:33:48;;;;;;;34.03;18.50;;;;;;;;;;5019933;28;20193;-73
2023/12/18 00:36:14;;;;;;;40.90;18.27;;;;;;;;;;5023937;28;20649;-73
2023/12/18 00:38:39;;;;;;;38.47;19.53;;;;;;;;;;5041361;28;20194;-72
2023/12/18 00:41:05;;;;;;;43.20;18.07;;;;;;;;;;5042325;28;20198;-73
2023/12/18 00:43:30;;;;;;;40.93;19.20;;;;;;;;;;5008652;28;20200;-73
2023/12/18 00:45:55;;;;;;;42.20;18.83;;;;;;;;;;5047585;28;20205;-73
2023/12/18 00:48:21;;;;;;;43.20;19.67;;;;;;;;;;5043864;28;20239;-73
2023/12/18 00:50:46;;;;;;;40.17;19.47;;;;;;;;;;5044028;28;20549;-73
2023/12/18 00:53:16;;;;;;;35.63;18.07;;;;;;;;;;5017712;28;20243;-73
2023/12/18 00:55:44;;;;;;;36.77;19.03;;;;;;;;;;5037810;28;20205;-73
2023/12/18 00:58:10;;;;;;;38.60;17.97;;;;;;;;;;5022133;28;20221;-73
2023/12/18 01:00:35;;;;;;;39.10;18.60;;;;;;;;;;5020694;28;20206;-72
2023/12/18 01:03:01;;;;;;;35.73;18.10;;;;;;;;;;5028136;28;20259;-72
2023/12/18 01:05:26;;;;;;;36.72;19.08;;;;;;;;;;5023086;28;20249;-73
2023/12/18 01:07:52;;;;;;;41.67;19.60;;;;;;;;;;5032455;28;20189;-72
2023/12/18 01:10:17;;;;;;;41.67;19.60;;;;;;;;;;5046424;28;20190;-73
2023/12/18 01:12:43;;;;;;;38.10;18.55;;;;;;;;;;5039171;28;20691;-73
2023/12/18 01:15:08;;;;;;;37.92;18.40;;;;;;;;;;5036432;28;20217;-73
2023/12/18 01:17:34;;;;;;;38.47;18.60;;;;;;;;;;5025494;28;20177;-73
2023/12/18 01:20:00;;;;;;;38.80;18.83;;;;;;;;;;5039752;28;20617;-72
2023/12/18 01:22:25;;;;;;;39.33;19.30;;;;;;;;;;4997265;28;20619;-72
2023/12/18 01:24:50;;;;;;;37.13;19.57;;;;;;;;;;5040121;28;20186;-73
2023/12/18 01:27:16;;;;;;;35.35;18.50;;;;;;;;;;5009987;28;20215;-73
2023/12/18 01:29:41;;;;;;;40.20;18.92;;;;;;;;;;5014781;28;20649;-72
2023/12/18 01:32:08;;;;;;;38.13;18.97;;;;;;;;;;5008225;28;20194;-72
2023/12/18 01:34:34;;;;;;;38.47;19.03;;;;;;;;;;5036186;28;20197;-72
2023/12/18 01:36:59;;;;;;;36.97;18.73;;;;;;;;;;5019046;28;20186;-72
2023/12/18 01:39:25;;;;;;;42.03;19.27;;;;;;;;;;5023420;28;20437;-72
2023/12/18 01:41:50;;;;;;;39.33;19.30;;;;;;;;;;5038716;28;20186;-72
2023/12/18 01:44:16;;;;;;;35.10;19.30;;;;;;;;;;5045484;28;20193;-72
2023/12/18 01:46:41;;;;;;;36.28;18.23;;;;;;;;;;5017670;28;22853;-73
2023/12/18 01:49:08;;;;;;;38.25;19.83;;;;;;;;;;5007239;28;20299;-72
2023/12/18 01:51:34;;;;;;;33.77;19.03;;;;;;;;;;5042613;28;20223;-73
2023/12/18 01:54:00;;;;;;;36.37;17.87;;;;;;;;;;5047287;28;20186;-72
2023/12/18 01:56:28;;;;;;;35.22;18.08;;;;;;;;;;5034787;28;20209;-72
2023/12/18 01:58:55;;;;;;;30.52;17.02;;;;;;;;;;5039101;28;20193;-72
2023/12/18 02:01:21;;;;;;;37.95;18.77;;;;;;;;;;5044153;28;20202;-72
2023/12/18 02:03:48;;;;;;;31.23;17.47;;;;;;;;;;5039498;28;20282;-72
2023/12/18 02:06:14;;;;;;;33.73;17.20;;;;;;;;;;5021172;28;20562;-72
2023/12/18 02:08:39;;;;;;;40.77;18.50;;;;;;;;;;5039294;28;20198;-72
2023/12/18 02:11:05;;;;;;;36.72;18.38;;;;;;;;;;5016261;28;20251;-72
2023/12/18 02:13:30;;;;;;;38.05;18.73;;;;;;;;;;5013707;28;20658;-72
2023/12/18 02:15:57;;;;;;;38.23;18.77;;;;;;;;;;5019745;28;20222;-72
2023/12/18 02:18:23;;;;;;;38.17;18.52;;;;;;;;;;5010382;28;20226;-72
2023/12/18 02:20:48;;;;;;;41.47;18.08;;;;;;;;;;5007234;28;20194;-72
2023/12/18 02:23:14;;;;;;;37.63;17.67;;;;;;;;;;5013708;28;20625;-73
2023/12/18 02:25:39;;;;;;;40.30;18.03;;;;;;;;;;5012867;28;20532;-73
2023/12/18 02:28:08;;;;;;;29.02;17.25;;;;;;;;;;4999123;28;20212;-72
2023/12/18 02:30:34;;;;;;;38.17;16.57;;;;;;;;;;5021935;28;20240;-72
2023/12/18 02:33:00;;;;;;;29.20;17.60;;;;;;;;;;5000701;28;20209;-73
2023/12/18 02:35:25;;;;;;;30.17;17.13;;;;;;;;;;5001396;28;20221;-72
2023/12/18 02:37:51;;;;;;;34.58;16.48;;;;;;;;;;4995762;28;20183;-73
2023/12/18 02:40:16;;;;;;;36.07;17.03;;;;;;;;;;5002986;28;20194;-72
2023/12/18 02:42:42;;;;;;;33.42;16.85;;;;;;;;;;5021227;28;20592;-74
2023/12/18 02:45:07;;;;;;;32.10;17.75;;;;;;;;;;5002232;28;20238;-72
2023/12/18 02:47:33;;;;;;;32.83;16.42;;;;;;;;;;4997474;28;20190;-72
2023/12/18 02:49:58;;;;;;;31.15;16.70;;;;;;;;;;5008654;28;20295;-72
2023/12/18 02:52:24;;;;;;;35.97;16.67;;;;;;;;;;4997782;28;20221;-73
2023/12/18 02:54:49;;;;;;;38.47;18.47;;;;;;;;;;5025673;28;20205;-72
2023/12/18 02:57:15;;;;;;;35.10;18.15;;;;;;;;;;5005822;28;20190;-72
2023/12/18 02:59:40;;;;;;;34.67;18.08;;;;;;;;;;5024761;28;20290;-72
2023/12/18 03:02:05;;;;;;;32.30;16.67;;;;;;;;;;5000807;28;20182;-73
2023/12/18 03:04:31;;;;;;;43.17;17.47;;;;;;;;;;5007402;28;20194;-73
2023/12/18 03:06:56;;;;;;;26.42;16.45;;;;;;;;;;5015102;28;20609;-73
2023/12/18 03:09:22;;;;;;;31.47;17.13;;;;;;;;;;4998842;28;20203;-72
2023/12/18 03:11:47;;;;;;;29.25;16.27;;;;;;;;;;5022838;28;20327;-72
2023/12/18 03:14:13;;;;;;;33.55;16.70;;;;;;;;;;5037874;28;20648;-73
2023/12/18 03:16:38;;;;;;;35.07;18.67;;;;;;;;;;5034545;28;20213;-72
2023/12/18 03:19:04;;;;;;;31.20;18.48;;;;;;;;;;5043236;28;20665;-72
2023/12/18 03:21:29;;;;;;;36.23;18.13;;;;;;;;;;5046933;28;20197;-72
2023/12/18 03:23:55;;;;;;;29.27;16.80;;;;;;;;;;5041783;28;20273;-72
2023/12/18 03:26:20;;;;;;;32.37;18.30;;;;;;;;;;5039174;28;20606;-72
2023/12/18 03:28:46;;;;;;;36.13;17.48;;;;;;;;;;5045032;28;20185;-73
2023/12/18 03:31:12;;;;;;;33.87;17.37;;;;;;;;;;5041337;28;20285;-72
2023/12/18 03:33:38;;;;;;;35.30;17.23;;;;;;;;;;5037784;28;20186;-72
2023/12/18 03:36:07;;;;;;;35.07;18.03;;;;;;;;;;5035651;28;20221;-72
2023/12/18 03:38:32;;;;;;;34.13;19.10;;;;;;;;;;5041162;28;20208;-72
2023/12/18 03:40:58;;;;;;;35.38;18.52;;;;;;;;;;5035402;28;20197;-72
2023/12/18 03:43:24;;;;;;;33.30;17.27;;;;;;;;;;5033560;28;20245;-72
2023/12/18 03:45:50;;;;;;;35.42;18.63;;;;;;;;;;5032514;28;20202;-73
2023/12/18 03:48:16;;;;;;;34.65;17.88;;;;;;;;;;5034315;28;20224;-74
2023/12/18 03:50:42;;;;;;;33.55;17.02;;;;;;;;;;5030049;28;20193;-72
2023/12/18 03:53:08;;;;;;;33.72;17.77;;;;;;;;;;5041979;28;20202;-71
2023/12/18 03:55:34;;;;;;;30.85;17.30;;;;;;;;;;5040417;28;20213;-72
2023/12/18 03:58:00;;;;;;;34.30;16.95;;;;;;;;;;5038201;28;20206;-72
2023/12/18 04:00:26;;;;;;;34.17;17.63;;;;;;;;;;5039165;28;20193;-73
2023/12/18 04:02:51;;;;;;;31.52;17.75;;;;;;;;;;5038813;28;20186;-72
2023/12/18 04:05:17;;;;;;;32.65;17.00;;;;;;;;;;5033096;28;20194;-73
2023/12/18 04:07:42;;;;;;;30.48;17.05;;;;;;;;;;5037083;28;20189;-72
2023/12/18 04:10:08;;;;;;;34.30;16.77;;;;;;;;;;5033051;28;20206;-72
2023/12/18 04:12:34;;;;;;;35.60;17.30;;;;;;;;;;5025255;28;20309;-73
2023/12/18 04:14:59;;;;;;;30.00;17.25;;;;;;;;;;5008133;28;20301;-73
2023/12/18 04:17:25;;;;;;;33.42;18.38;;;;;;;;;;5015568;28;20658;-73
2023/12/18 04:19:50;;;;;;;38.90;17.15;;;;;;;;;;5003536;28;20209;-72
2023/12/18 04:22:15;;;;;;;31.70;16.88;;;;;;;;;;5016594;28;20195;-72
2023/12/18 04:24:41;;;;;;;31.27;17.35;;;;;;;;;;4999028;28;20214;-72
2023/12/18 04:27:06;;;;;;;29.23;17.98;;;;;;;;;;5022351;28;20202;-73
2023/12/18 04:29:32;;;;;;;30.80;16.83;;;;;;;;;;5017462;28;20592;-72
2023/12/18 04:31:57;;;;;;;27.23;16.97;;;;;;;;;;5012737;28;20688;-72
2023/12/18 04:34:23;;;;;;;38.37;17.83;;;;;;;;;;5001548;28;20734;-73
2023/12/18 04:36:48;;;;;;;35.50;17.47;;;;;;;;;;5006420;28;20215;-72
2023/12/18 04:39:16;;;;;;;32.03;17.30;;;;;;;;;;4992007;28;20245;-72
2023/12/18 04:41:42;;;;;;;34.13;18.63;;;;;;;;;;4998916;28;20198;-72
2023/12/18 04:44:07;;;;;;;32.00;17.77;;;;;;;;;;5027363;28;20202;-72
2023/12/18 04:46:36;;;;;;;36.07;17.83;;;;;;;;;;5004887;28;20201;-72
2023/12/18 04:49:03;;;;;;;36.63;17.37;;;;;;;;;;5027795;28;20209;-73
2023/12/18 04:51:29;;;;;;;37.17;17.43;;;;;;;;;;5022774;28;20202;-72
2023/12/18 04:53:55;;;;;;;31.73;17.63;;;;;;;;;;5026426;28;20221;-72
2023/12/18 04:56:20;;;;;;;33.60;18.13;;;;;;;;;;5003748;28;20210;-72
2023/12/18 04:58:46;;;;;;;41.03;18.43;;;;;;;;;;5022886;28;20335;-72
2023/12/18 05:01:11;;;;;;;31.73;17.93;;;;;;;;;;5023890;28;20198;-72
2023/12/18 05:03:37;;;;;;;33.97;18.20;;;;;;;;;;5023322;28;20205;-72
2023/12/18 05:06:02;;;;;;;32.10;17.43;;;;;;;;;;5017869;28;20218;-73
2023/12/18 05:08:28;;;;;;;36.60;18.10;;;;;;;;;;5013406;28;20204;-72
2023/12/18 05:10:54;;;;;;;33.67;18.57;;;;;;;;;;5018080;28;20207;-72
2023/12/18 05:13:20;;;;;;;34.37;18.90;;;;;;;;;;5024649;28;20229;-72
2023/12/18 05:15:45;;;;;;;33.63;18.37;;;;;;;;;;5025008;28;20626;-73
2023/12/18 05:18:11;;;;;;;33.60;18.87;;;;;;;;;;5019182;28;20217;-72
2023/12/18 05:20:37;;;;;;;32.97;18.10;;;;;;;;;;5017121;28;20686;-72
2023/12/18 05:23:02;;;;;;;36.00;19.23;;;;;;;;;;5019718;28;20248;-72
2023/12/18 05:25:28;;;;;;;33.63;18.50;;;;;;;;;;5010577;28;20857;-73
2023/12/18 05:27:53;;;;;;;38.43;20.13;;;;;;;;;;5021092;28;20195;-72
2023/12/18 05:30:19;;;;;;;33.90;19.20;;;;;;;;;;5017030;28;20210;-72
2023/12/18 05:32:44;;;;;;;40.73;20.20;;;;;;;;;;5004098;28;20216;-73
2023/12/18 05:35:10;;;;;;;35.80;18.90;;;;;;;;;;5021706;28;20578;-73
2023/12/18 05:37:35;;;;;;;39.00;19.80;;;;;;;;;;4992030;28;20210;-72
2023/12/18 05:40:00;;;;;;;41.37;19.90;;;;;;;;;;5026405;28;20546;-72
2023/12/18 05:42:26;;;;;;;40.27;19.70;;;;;;;;;;5022532;28;20193;-72
2023/12/18 05:44:51;;;;;;;34.00;19.37;;;;;;;;;;4988612;28;20503;-72
2023/12/18 05:47:17;;;;;;;35.07;19.33;;;;;;;;;;4999963;28;20210;-72
2023/12/18 05:49:42;;;;;;;38.70;20.87;;;;;;;;;;5020500;28;20792;-72
2023/12/18 05:52:08;;;;;;;49.03;20.00;;;;;;;;;;5013623;28;20195;-72
2023/12/18 05:54:33;;;;;;;36.73;20.43;;;;;;;;;;5021730;28;20252;-73
2023/12/18 05:56:59;;;;;;;41.27;21.13;;;;;;;;;;5003081;28;20183;-72
2023/12/18 05:59:24;;;;;;;44.67;20.97;;;;;;;;;;5022716;28;20186;-72
2023/12/18 06:01:50;;;;;;;37.77;20.53;;;;;;;;;;4982091;28;20262;-72
2023/12/18 06:04:15;;;;;;;42.43;20.33;;;;;;;;;;5001486;28;20207;-72
2023/12/18 06:06:41;;;;;;;44.83;21.30;;;;;;;;;;4993705;28;20194;-72
2023/12/18 06:09:06;;;;;;;43.90;21.40;;;;;;;;;;4991816;28;21276;-73
2023/12/18 06:11:33;;;;;;;41.23;21.93;;;;;;;;;;5000382;28;20551;-72
2023/12/18 06:13:59;;;;;;;47.63;21.60;;;;;;;;;;5015192;28;20186;-72
2023/12/18 06:16:24;;;;;;;41.90;21.50;;;;;;;;;;5033639;28;20236;-72
2023/12/18 06:18:49;;;;;;;43.17;20.90;;;;;;;;;;5033301;28;20209;-72
2023/12/18 06:21:15;;;;;;;42.80;22.90;;;;;;;;;;5029391;28;20198;-72
2023/12/18 06:23:43;;;;;;;47.97;22.90;;;;;;;;;;5031073;28;20206;-73
2023/12/18 06:26:08;;;;;;;40.50;21.47;;;;;;;;;;5013414;28;20666;-74
2023/12/18 06:28:34;;;;;;;40.43;22.80;;;;;;;;;;5014896;28;20198;-72
2023/12/18 06:30:59;;;;;;;47.97;23.00;;;;;;;;;;5017492;28;20551;-72
2023/12/18 06:33:25;;;;;;;45.83;22.00;;;;;;;;;;5016013;28;20198;-73
2023/12/18 06:35:50;;;;;;;50.97;22.98;;;;;;;;;;5033333;28;20221;-73
2023/12/18 06:38:15;;;;;;;46.90;23.02;;;;;;;;;;5040166;28;20255;-73
2023/12/18 06:40:41;;;;;;;43.95;23.02;;;;;;;;;;5010713;28;20189;-73
2023/12/18 06:43:07;;;;;;;49.85;23.30;;;;;;;;;;5023845;28;20201;-72
2023/12/18 06:45:32;;;;;;;45.30;24.02;;;;;;;;;;5011371;28;20692;-73
2023/12/18 06:47:57;;;;;;;48.13;23.30;;;;;;;;;;5032895;28;20584;-74
2023/12/18 06:50:23;;;;;;;48.83;23.95;;;;;;;;;;5016455;28;20193;-73
2023/12/18 06:52:48;;;;;;;41.28;22.17;;;;;;;;;;5043234;28;20225;-73
2023/12/18 06:55:14;;;;;;;48.65;23.20;;;;;;;;;;5016743;28;20214;-74
2023/12/18 06:57:39;;;;;;;38.20;22.83;;;;;;;;;;5002860;28;20201;-73
2023/12/18 07:00:05;;;;;;;45.50;22.17;;;;;;;;;;5012696;28;20526;-71
2023/12/18 07:02:31;;;;;;;44.70;23.55;;;;;;;;;;5024388;28;20283;-71
2023/12/18 07:04:56;;;;;;;43.72;23.02;;;;;;;;;;5019238;28;20603;-73
2023/12/18 07:07:22;;;;;;;44.13;22.70;;;;;;;;;;5012222;28;20743;-73
2023/12/18 07:09:47;;;;;;;52.20;22.73;;;;;;;;;;5036718;28;20185;-73
2023/12/18 07:12:13;;;;;;;45.55;22.90;;;;;;;;;;5034704;28;20313;-72
2023/12/18 07:14:38;;;;;;;41.83;23.20;;;;;;;;;;5028966;28;20189;-72
2023/12/18 07:17:04;;;;;;;43.92;24.25;;;;;;;;;;5019372;28;20194;-73
2023/12/18 07:19:30;;;;;;;39.92;23.15;;;;;;;;;;5005772;28;20572;-71
2023/12/18 07:21:55;;;;;;;43.38;23.63;;;;;;;;;;5013833;28;20190;-72
2023/12/18 07:24:21;;;;;;;46.08;23.85;;;;;;;;;;5003777;28;20529;-72
2023/12/18 07:26:46;;;;;;;47.78;25.10;;;;;;;;;;5003105;28;20602;-71
2023/12/18 07:29:11;;;;;;;45.35;26.05;;;;;;;;;;5010800;28;20204;-71
2023/12/18 07:31:37;;;;;;;48.00;24.42;;;;;;;;;;5015818;28;20249;-72
2023/12/18 07:34:03;;;;;;;47.75;24.95;;;;;;;;;;5008567;28;20184;-72
2023/12/18 07:36:28;;;;;;;49.33;26.27;;;;;;;;;;5023468;28;20216;-72
2023/12/18 07:38:54;;;;;;;45.45;25.42;;;;;;;;;;5022018;28;20194;-72
2023/12/18 07:41:19;;;;;;;54.03;26.83;;;;;;;;;;5022266;28;20259;-71
2023/12/18 07:43:45;;;;;;;45.90;24.65;;;;;;;;;;5021915;28;20688;-72
2023/12/18 07:46:18;;;;;;;49.67;25.80;;;;;;;;;;5021107;28;20231;-72
2023/12/18 07:48:46;;;;;;;50.33;24.60;;;;;;;;;;5022545;28;20182;-72
2023/12/18 07:51:12;;;;;;;47.92;25.63;;;;;;;;;;5027514;28;20265;-71
2023/12/18 07:53:37;;;;;;;44.28;25.08;;;;;;;;;;5009567;28;20269;-72
2023/12/18 07:56:03;;;;;;;55.20;25.58;;;;;;;;;;5025468;28;20344;-72
2023/12/18 07:58:28;;;;;;;50.33;25.40;;;;;;;;;;5003293;28;20178;-72
2023/12/18 08:00:53;;;;;;;47.80;24.87;;;;;;;;;;4987277;28;20262;-71
2023/12/18 08:03:19;;;;;;;57.28;26.08;;;;;;;;;;5009639;28;20715;-71
2023/12/18 08:05:44;;;;;;;49.13;24.58;;;;;;;;;;5021308;28;20183;-72
2023/12/18 08:08:10;;;;;;;56.58;27.45;;;;;;;;;;5006387;28;20190;-72
2023/12/18 08:10:35;;;;;;;49.60;26.23;;;;;;;;;;5018054;28;20546;-72
2023/12/18 08:13:00;;;;;;;52.80;26.83;;;;;;;;;;5036275;28;20711;-71
2023/12/18 08:15:26;;;;;;;45.90;25.90;;;;;;;;;;5039875;28;20267;-72
2023/12/18 08:17:52;;;;;;;50.92;25.75;;;;;;;;;;5039814;28;20237;-71
2023/12/18 08:20:18;;;;;;;52.70;27.30;;;;;;;;;;5038737;28;20194;-72
2023/12/18 08:22:43;;;;;;;51.13;26.48;;;;;;;;;;5045871;28;20182;-72
2023/12/18 08:25:09;;;;;;;52.75;27.70;;;;;;;;;;5040533;28;20177;-72
2023/12/18 08:27:34;;;;;;;48.40;26.90;;;;;;;;;;5044476;28;20630;-72
2023/12/18 08:30:02;;;;;;;66.77;27.63;;;;;;;;;;5044797;28;20657;-72
2023/12/18 08:32:28;;;;;;;60.00;27.90;;;;;;;;;;5043079;28;20224;-72
2023/12/18 08:34:54;;;;;;;55.03;27.17;;;;;;;;;;5039890;28;20221;-72
2023/12/18 08:37:19;;;;;;;52.27;27.40;;;;;;;;;;5041002;28;20189;-71
2023/12/18 08:39:45;;;;;;;51.33;27.77;;;;;;;;;;5031640;28;20216;-71
2023/12/18 08:42:10;;;;;;;60.40;28.30;;;;;;;;;;5045384;28;20247;-72
2023/12/18 08:44:35;;;;;;;58.37;28.50;;;;;;;;;;5050045;28;20209;-72
2023/12/18 08:47:02;;;;;;;70.70;29.70;;;;;;;;;;5042685;28;20186;-72
2023/12/18 08:49:27;;;;;;;62.77;28.73;;;;;;;;;;5037182;28;20193;-72
2023/12/18 08:51:53;;;;;;;56.00;28.73;;;;;;;;;;5043259;28;20258;-74
2023/12/18 08:54:18;;;;;;;62.30;28.53;;;;;;;;;;5042974;28;20193;-72
2023/12/18 08:56:44;;;;;;;61.20;28.33;;;;;;;;;;5040281;28;20217;-72
2023/12/18 08:59:11;;;;;;;58.83;28.17;;;;;;;;;;5032937;28;20727;-72
2023/12/18 09:01:39;;;;;;;55.60;27.53;;;;;;;;;;5047598;28;20228;-73
2023/12/18 09:04:06;;;;;;;59.30;28.90;;;;;;;;;;5036783;28;20189;-72
2023/12/18 09:06:32;;;;;;;59.07;28.60;;;;;;;;;;5037670;28;20193;-72
2023/12/18 09:08:57;;;;;;;63.00;28.47;;;;;;;;;;5040130;28;20194;-73
2023/12/18 09:11:22;;;;;;;56.10;27.30;;;;;;;;;;5034832;28;20636;-72
2023/12/18 09:13:48;;;;;;;49.33;27.17;;;;;;;;;;5014397;28;20182;-73
2023/12/18 09:16:13;;;;;;;54.93;27.43;;;;;;;;;;5030762;28;20561;-72
2023/12/18 09:18:39;;;;;;;53.10;27.30;;;;;;;;;;5028770;28;20549;-72
2023/12/18 09:21:04;;;;;;;58.43;27.30;;;;;;;;;;5013936;28;20187;-72
2023/12/18 09:23:30;;;;;;;58.17;26.63;;;;;;;;;;5011444;28;20309;-72
2023/12/18 09:25:55;;;;;;;46.90;26.73;;;;;;;;;;5020687;28;20581;-72
2023/12/18 09:28:21;;;;;;;51.53;26.70;;;;;;;;;;5005739;28;20535;-72
2023/12/18 09:30:46;;;;;;;53.60;26.13;;;;;;;;;;5009924;28;20187;-72
2023/12/18 09:33:12;;;;;;;53.95;26.02;;;;;;;;;;4999121;28;20722;-72
2023/12/18 09:35:37;;;;;;;60.65;26.90;;;;;;;;;;4995234;28;20678;-72
2023/12/18 09:38:03;;;;;;;51.40;26.47;;;;;;;;;;5020897;28;20241;-73
2023/12/18 09:40:29;;;;;;;43.80;24.83;;;;;;;;;;5003641;28;20193;-73
2023/12/18 09:42:55;;;;;;;48.70;24.97;;;;;;;;;;5022312;28;20178;-73
2023/12/18 09:45:22;;;;;;;46.83;23.97;;;;;;;;;;5028054;28;20650;-72
2023/12/18 09:47:49;;;;;;;52.77;25.43;;;;;;;;;;5012311;28;20658;-73
2023/12/18 09:50:15;;;;;;;59.77;26.47;;;;;;;;;;4999632;28;20737;-72
2023/12/18 09:52:50;;;;;;;48.63;25.03;;;;;;;;;;5024924;28;20214;-73
2023/12/18 09:55:16;;;;;;;54.87;24.47;;;;;;;;;;5018728;28;20238;-72
2023/12/18 09:57:42;;;;;;;47.97;24.00;;;;;;;;;;5018735;28;20597;-73
2023/12/18 10:00:12;;;;;;;46.97;23.92;;;;;;;;;;5022971;28;20190;-72
2023/12/18 10:02:41;;;;;;;46.10;24.10;;;;;;;;;;5030749;28;20641;-72
2023/12/18 10:05:07;;;;;;;42.00;23.40;;;;;;;;;;5029835;28;20185;-73
2023/12/18 10:07:32;;;;;;;45.30;23.33;;;;;;;;;;5030014;28;20533;-72
2023/12/18 10:09:59;;;;;;;45.75;23.85;;;;;;;;;;5017594;28;20194;-72
2023/12/18 10:12:25;;;;;;;46.47;24.17;;;;;;;;;;5014364;28;20238;-72
2023/12/18 10:14:50;;;;;;;47.13;23.40;;;;;;;;;;5040497;28;20524;-72
2023/12/18 10:17:16;;;;;;;42.50;22.48;;;;;;;;;;5050438;28;20189;-73
2023/12/18 10:19:43;;;;;;;44.47;23.02;;;;;;;;;;5050012;28;20217;-73
2023/12/18 10:22:08;;;;;;;42.72;22.42;;;;;;;;;;5042569;28;20218;-73
2023/12/18 10:24:43;;;;;;;45.08;21.65;;;;;;;;;;5049802;28;20267;-73
2023/12/18 10:27:09;;;;;;;42.13;22.30;;;;;;;;;;5037687;28;20208;-73
2023/12/18 10:29:35;;;;;;;43.28;21.67;;;;;;;;;;5038518;28;20190;-74
2023/12/18 10:32:00;;;;;;;38.92;20.85;;;;;;;;;;5038457;28;20672;-73
2023/12/18 10:34:26;;;;;;;41.97;21.67;;;;;;;;;;5039466;28;20243;-72
2023/12/18 10:36:55;;;;;;;38.70;20.67;;;;;;;;;;5047851;28;20205;-73
2023/12/18 10:39:21;;;;;;;44.75;22.00;;;;;;;;;;5035856;28;20697;-72
2023/12/18 10:41:53;;;;;;;43.47;22.03;;;;;;;;;;5044311;28;20197;-72
2023/12/18 10:44:21;;;;;;;42.53;20.88;;;;;;;;;;5011340;28;20547;-73
2023/12/18 10:46:49;;;;;;;33.78;20.17;;;;;;;;;;5035348;28;20209;-73
2023/12/18 10:49:16;;;;;;;35.65;21.02;;;;;;;;;;5046261;28;20207;-72
2023/12/18 10:51:45;;;;;;;37.20;20.83;;;;;;;;;;5036788;28;20567;-72
2023/12/18 10:54:11;;;;;;;42.17;20.27;;;;;;;;;;5042634;28;20201;-73
2023/12/18 10:56:39;;;;;;;37.97;19.73;;;;;;;;;;5031158;28;20583;-73
2023/12/18 10:59:06;;;;;;;35.83;20.05;;;;;;;;;;5037703;28;20186;-73
2023/12/18 11:01:34;;;;;;;37.80;20.05;;;;;;;;;;5041830;28;20625;-73
2023/12/18 11:04:00;;;;;;;41.20;20.80;;;;;;;;;;5036573;28;20185;-73
2023/12/18 11:06:28;;;;;;;40.08;20.75;;;;;;;;;;5036641;28;20190;-73
2023/12/18 11:08:54;;;;;;;37.90;19.25;;;;;;;;;;5032947;28;20255;-72
2023/12/18 11:11:21;;;;;;;38.03;20.67;;;;;;;;;;5027258;28;20186;-72
2023/12/18 11:14:08;;;;;;;34.13;19.45;;;;;;;;;;5017042;28;20673;-74
2023/12/18 11:17:22;;;;;;;34.75;20.05;;;;;;;;;;4982403;28;20218;-73
2023/12/18 11:20:01;;;;;;;33.92;19.70;;;;;;;;;;4986155;28;20226;-73
2023/12/18 11:22:46;;;;;;;40.00;20.45;;;;;;;;;;5007883;28;20646;-74
2023/12/18 11:25:12;;;;;;;39.77;20.83;;;;;;;;;;5024421;28;20226;-73
2023/12/18 11:27:40;;;;;;;44.65;21.83;;;;;;;;;;5028169;28;20408;-74
2023/12/18 11:30:22;;;;;;;46.22;20.63;;;;;;;;;;5026687;28;20198;-72
2023/12/18 11:32:49;;;;;;;37.65;21.67;;;;;;;;;;5017771;28;20188;-73
2023/12/18 11:35:15;;;;;;;39.30;20.88;;;;;;;;;;5006618;28;20207;-72
2023/12/18 11:37:50;;;;;;;42.28;20.92;;;;;;;;;;5029495;28;20217;-72
2023/12/18 11:40:31;;;;;;;39.08;21.05;;;;;;;;;;5018499;28;20202;-71
2023/12/18 11:42:57;;;;;;;43.28;21.50;;;;;;;;;;5022532;28;20194;-72
2023/12/18 11:45:23;;;;;;;40.33;20.58;;;;;;;;;;5007225;28;20343;-72
2023/12/18 11:48:01;;;;;;;36.90;21.50;;;;;;;;;;5009549;28;20713;-72
2023/12/18 11:50:31;;;;;;;46.60;21.33;;;;;;;;;;5021386;28;20189;-72
2023/12/18 11:52:58;;;;;;;43.30;22.40;;;;;;;;;;5020671;28;20526;-72
2023/12/18 11:55:45;;;;;;;43.97;21.67;;;;;;;;;;4986228;28;20202;-72
2023/12/18 11:58:10;;;;;;;40.58;21.38;;;;;;;;;;5021763;28;20689;-72
2023/12/18 12:00:38;;;;;;;43.35;22.45;;;;;;;;;;4999613;28;20282;-72
2023/12/18 12:03:04;;;;;;;43.65;21.73;;;;;;;;;;5022637;28;20179;-74
2023/12/18 12:05:31;;;;;;;46.65;22.48;;;;;;;;;;5010037;28;20282;-72
2023/12/18 12:07:58;;;;;;;36.50;21.95;;;;;;;;;;5004269;28;20488;-72
2023/12/18 12:10:24;;;;;;;42.80;22.67;;;;;;;;;;5003913;28;20661;-72
2023/12/18 12:12:56;;;;;;;47.45;23.20;;;;;;;;;;5001696;28;20237;-72
2023/12/18 12:15:24;;;;;;;40.28;21.67;;;;;;;;;;4997193;28;20214;-73
2023/12/18 12:17:49;;;;;;;41.45;21.75;;;;;;;;;;4993231;28;20207;-72
2023/12/18 12:20:17;;;;;;;40.90;22.33;;;;;;;;;;5014546;28;20195;-72
2023/12/18 12:22:43;;;;;;;39.53;22.25;;;;;;;;;;5026825;28;20210;-72
2023/12/18 12:25:08;;;;;;;38.63;22.20;;;;;;;;;;5001992;28;20185;-72
2023/12/18 12:27:34;;;;;;;39.13;22.55;;;;;;;;;;5023122;28;20555;-72
2023/12/18 12:30:00;;;;;;;42.38;21.95;;;;;;;;;;5012438;28;20187;-72
2023/12/18 12:32:25;;;;;;;45.22;22.08;;;;;;;;;;5018738;28;20202;-72
2023/12/18 12:34:50;;;;;;;44.03;22.58;;;;;;;;;;5021712;28;20209;-71
2023/12/18 12:37:16;;;;;;;37.38;21.63;;;;;;;;;;5009944;28;20190;-72
2023/12/18 12:40:01;;;;;;;42.38;21.52;;;;;;;;;;5013215;28;20186;-72
2023/12/18 12:42:26;;;;;;;46.05;23.02;;;;;;;;;;5012931;28;20196;-71
2023/12/18 12:44:53;;;;;;;41.58;22.73;;;;;;;;;;5027360;28;20669;-71
2023/12/18 12:47:18;;;;;;;41.53;21.35;;;;;;;;;;5022250;28;20210;-71
2023/12/18 12:49:46;;;;;;;39.95;21.73;;;;;;;;;;4992536;28;20221;-72
2023/12/18 12:52:13;;;;;;;40.30;22.40;;;;;;;;;;4994574;28;20183;-72
2023/12/18 12:54:38;;;;;;;40.72;21.20;;;;;;;;;;4994460;28;20194;-72
2023/12/18 12:57:04;;;;;;;42.65;20.73;;;;;;;;;;5009952;28;20625;-72
2023/12/18 12:59:29;;;;;;;39.47;21.42;;;;;;;;;;5022973;28;20690;-72
2023/12/18 13:01:55;;;;;;;41.42;21.50;;;;;;;;;;5021194;28;20190;-72
2023/12/18 13:04:20;;;;;;;41.03;20.48;;;;;;;;;;5013375;28;20286;-72
2023/12/18 13:06:46;;;;;;;35.80;19.90;;;;;;;;;;5010662;28;20195;-72
2023/12/18 13:09:12;;;;;;;37.33;22.23;;;;;;;;;;4990532;28;20251;-72
2023/12/18 13:11:39;;;;;;;43.88;21.45;;;;;;;;;;5021979;28;20643;-72
2023/12/18 13:14:05;;;;;;;37.15;20.00;;;;;;;;;;5001131;28;20233;-72
2023/12/18 13:16:30;;;;;;;40.50;20.95;;;;;;;;;;5018059;28;20238;-72
2023/12/18 13:18:56;;;;;;;41.50;20.58;;;;;;;;;;5005772;28;20211;-72
2023/12/18 13:21:21;;;;;;;37.70;20.90;;;;;;;;;;5024320;28;20550;-72
2023/12/18 13:23:47;;;;;;;35.10;21.27;;;;;;;;;;4993895;28;20218;-73
2023/12/18 13:26:12;;;;;;;37.97;20.55;;;;;;;;;;5027871;28;20188;-72
2023/12/18 13:28:37;;;;;;;43.88;20.92;;;;;;;;;;5014976;28;20209;-72
2023/12/18 13:31:03;;;;;;;36.38;20.27;;;;;;;;;;4994034;28;20616;-72
2023/12/18 13:33:28;;;;;;;38.35;22.65;;;;;;;;;;5024868;28;20272;-72
2023/12/18 13:35:55;;;;;;;35.42;20.35;;;;;;;;;;4994553;28;20207;-74
2023/12/18 13:38:21;;;;;;;36.53;20.63;;;;;;;;;;5007301;28;20215;-72
2023/12/18 13:40:46;;;;;;;38.63;20.35;;;;;;;;;;5018953;28;20241;-72
2023/12/18 13:43:12;;;;;;;37.25;20.02;;;;;;;;;;5024104;28;20190;-72
2023/12/18 13:45:37;;;;;;;36.75;20.25;;;;;;;;;;5013621;28;20186;-72
2023/12/18 13:48:03;;;;;;;40.78;20.85;;;;;;;;;;5025550;28;20189;-72
2023/12/18 13:50:28;;;;;;;40.17;20.40;;;;;;;;;;5013501;28;20269;-72
2023/12/18 13:52:54;;;;;;;34.53;20.15;;;;;;;;;;5030254;28;20209;-72
2023/12/18 13:55:20;;;;;;;38.17;20.75;;;;;;;;;;5027300;28;20210;-72
2023/12/18 13:57:45;;;;;;;35.42;20.27;;;;;;;;;;5010000;28;20190;-72
2023/12/18 14:00:11;;;;;;;39.13;20.38;;;;;;;;;;4995065;28;20603;-72
2023/12/18 14:02:37;;;;;;;37.67;20.13;;;;;;;;;;5024887;28;20198;-72
2023/12/18 14:05:05;;;;;;;37.00;20.88;;;;;;;;;;4988723;28;20198;-72
2023/12/18 14:07:31;;;;;;;39.38;20.10;;;;;;;;;;4999673;28;20190;-72
2023/12/18 14:09:57;;;;;;;38.88;20.00;;;;;;;;;;4998786;28;20202;-72
2023/12/18 14:12:22;;;;;;;35.88;20.15;;;;;;;;;;4993749;28;20627;-72